Time;durP1;ratioP1;P1;durP2;ratioP2;P2;SDS_P1;SDS_P2;PMS_P1;PMS_P2;Temp;Humidity;BMP_temperature;BMP_pressure;BME280_temperature;BME280_humidity;BME280_pressure;Samples;Min_cycle;Max_cycle;Signal;HPM_P1;HPM_P2
2023/07/15 00:00:18;;;;;;;4.23;3.63;;;21.30;91.90;;;;;;5014628;28;20833;-71
2023/07/15 00:02:47;;;;;;;5.90;4.60;;;21.30;92.10;;;;;;5034155;28;20436;-71
2023/07/15 00:05:20;;;;;;;4.43;3.03;;;21.20;92.10;;;;;;5036257;28;20529;-71
2023/07/15 00:07:48;;;;;;;5.70;3.60;;;21.20;92.30;;;;;;5036847;28;20432;-70
2023/07/15 00:10:15;;;;;;;10.97;3.90;;;21.10;92.50;;;;;;5035215;28;20448;-71
2023/07/15 00:12:42;;;;;;;10.70;4.30;;;21.10;92.60;;;;;;5016902;28;20500;-70
2023/07/15 00:15:12;;;;;;;6.47;3.60;;;21.00;92.80;;;;;;5016476;28;20930;-71
2023/07/15 00:17:45;;;;;;;5.90;3.87;;;21.00;92.70;;;;;;5016714;28;20811;-71
2023/07/15 00:20:14;;;;;;;4.33;3.40;;;21.00;92.70;;;;;;5016635;28;20485;-71
2023/07/15 00:22:43;;;;;;;6.17;3.80;;;21.10;92.60;;;;;;5034499;28;20442;-71
2023/07/15 00:25:15;;;;;;;4.83;3.83;;;21.10;92.50;;;;;;5036005;28;20519;-71
2023/07/15 00:27:43;;;;;;;4.10;3.47;;;21.00;92.60;;;;;;5035872;28;20472;-71
2023/07/15 00:30:11;;;;;;;4.10;2.40;;;20.90;92.90;;;;;;5035974;28;20932;-70
2023/07/15 00:32:40;;;;;;;7.63;3.80;;;20.90;93.00;;;;;;5018246;28;20431;-71
2023/07/15 00:35:28;;;;;;;4.50;3.47;;;20.90;93.10;;;;;;5016060;28;20447;-71
2023/07/15 00:37:55;;;;;;;5.77;3.57;;;21.00;92.90;;;;;;5015969;28;20459;-71
2023/07/15 00:40:23;;;;;;;7.70;3.60;;;21.00;92.70;;;;;;5015969;28;20911;-72
2023/07/15 00:43:28;;;;;;;5.07;3.30;;;21.10;92.70;;;;;;5030392;28;20515;-71
2023/07/15 00:46:28;;;;;;;4.97;3.73;;;21.00;92.60;;;;;;5016144;28;20450;-72
2023/07/15 00:49:02;;;;;;;5.80;3.30;;;21.00;92.60;;;;;;5005772;28;21015;-71
2023/07/15 00:51:31;;;;;;;4.40;3.53;;;21.00;92.70;;;;;;5023674;28;20465;-71
2023/07/15 00:54:00;;;;;;;6.00;3.53;;;21.00;92.90;;;;;;5016439;28;20839;-71
2023/07/15 00:56:31;;;;;;;5.50;3.47;;;20.90;93.40;;;;;;5021736;28;20533;-71
2023/07/15 00:58:58;;;;;;;3.90;3.43;;;20.90;93.50;;;;;;5035880;28;20474;-71
2023/07/15 01:01:26;;;;;;;3.90;2.87;;;20.90;93.50;;;;;;5035577;28;20434;-71
2023/07/15 01:03:54;;;;;;;5.20;3.80;;;20.90;93.40;;;;;;5035919;28;20771;-71
2023/07/15 01:06:23;;;;;;;3.63;2.90;;;20.90;93.10;;;;;;5026180;28;20446;-71
2023/07/15 01:08:51;;;;;;;5.57;3.10;;;20.80;93.30;;;;;;5015354;28;20450;-71
2023/07/15 01:11:18;;;;;;;5.10;4.03;;;20.70;93.40;;;;;;5015103;28;20522;-71
2023/07/15 01:13:45;;;;;;;3.50;3.07;;;20.60;93.70;;;;;;5015153;28;20527;-71
2023/07/15 01:16:13;;;;;;;4.80;3.57;;;20.60;93.90;;;;;;5022743;28;20940;-71
2023/07/15 01:18:40;;;;;;;4.90;3.57;;;20.60;94.00;;;;;;5035352;28;20471;-71
2023/07/15 01:21:08;;;;;;;4.67;3.33;;;20.60;94.30;;;;;;5035078;28;20940;-71
2023/07/15 01:23:37;;;;;;;3.73;3.10;;;20.60;94.30;;;;;;5035386;28;20919;-71
2023/07/15 01:26:04;;;;;;;5.60;3.60;;;20.70;94.30;;;;;;5028412;28;20435;-71
2023/07/15 01:28:32;;;;;;;6.07;3.10;;;20.70;94.10;;;;;;5015065;28;20926;-71
2023/07/15 01:30:59;;;;;;;7.63;4.10;;;20.70;94.10;;;;;;5029463;28;20510;-71
2023/07/15 01:33:27;;;;;;;8.60;3.93;;;20.80;93.90;;;;;;5035370;28;20442;-71
2023/07/15 01:35:54;;;;;;;6.20;3.10;;;20.70;94.00;;;;;;5030177;28;20486;-71
2023/07/15 01:38:21;;;;;;;7.73;4.00;;;20.70;93.90;;;;;;5015353;28;20459;-71
2023/07/15 01:40:50;;;;;;;3.93;3.37;;;20.70;94.00;;;;;;5015125;28;20841;-71
2023/07/15 01:43:20;;;;;;;5.30;3.50;;;20.80;93.70;;;;;;5015110;28;20448;-71
2023/07/15 01:45:47;;;;;;;4.30;3.03;;;20.70;93.60;;;;;;5017965;28;20494;-71
2023/07/15 01:48:15;;;;;;;4.80;3.27;;;20.70;93.70;;;;;;5035041;28;20442;-71
2023/07/15 01:50:43;;;;;;;3.73;3.23;;;20.60;94.00;;;;;;5034827;28;20442;-71
2023/07/15 01:53:11;;;;;;;5.60;3.40;;;20.70;94.10;;;;;;5026539;28;20448;-71
2023/07/15 01:55:38;;;;;;;3.40;2.93;;;20.70;94.00;;;;;;5016247;28;20443;-73
2023/07/15 01:58:06;;;;;;;4.33;3.50;;;20.70;93.80;;;;;;5032956;28;20466;-71
2023/07/15 02:00:34;;;;;;;7.63;3.63;;;20.70;93.70;;;;;;5034585;28;20769;-71
2023/07/15 02:03:01;;;;;;;5.83;2.90;;;20.70;93.10;;;;;;5034423;28;20445;-71
2023/07/15 02:05:31;;;;;;;7.40;3.23;;;20.70;93.10;;;;;;5033613;28;20439;-73
2023/07/15 02:07:59;;;;;;;4.43;3.17;;;20.60;93.30;;;;;;5014719;28;20447;-71
2023/07/15 02:10:26;;;;;;;3.93;3.33;;;20.50;93.20;;;;;;5014599;28;20838;-71
2023/07/15 02:12:54;;;;;;;3.60;2.70;;;20.60;93.30;;;;;;4994606;28;20499;-71
2023/07/15 02:15:22;;;;;;;3.50;2.83;;;20.60;93.30;;;;;;4995184;28;20447;-71
2023/07/15 02:17:52;;;;;;;5.33;3.27;;;20.60;93.30;;;;;;4994327;28;20475;-71
2023/07/15 02:20:21;;;;;;;4.13;2.80;;;20.60;93.10;;;;;;4987275;28;20475;-70
2023/07/15 02:22:48;;;;;;;6.60;3.20;;;20.50;92.80;;;;;;4994983;28;20453;-71
2023/07/15 02:25:16;;;;;;;4.20;3.20;;;20.50;92.90;;;;;;4993747;28;20441;-71
2023/07/15 02:27:44;;;;;;;3.30;2.80;;;20.40;93.10;;;;;;4993520;28;20447;-71
2023/07/15 02:30:12;;;;;;;5.53;4.30;;;20.40;93.10;;;;;;4993888;28;20449;-71
2023/07/15 02:32:42;;;;;;;4.97;3.63;;;20.40;93.20;;;;;;4993655;28;21031;-71
2023/07/15 02:35:15;;;;;;;3.80;3.40;;;20.40;93.30;;;;;;4994630;28;20752;-71
2023/07/15 02:37:43;;;;;;;4.63;3.03;;;20.30;93.30;;;;;;4993924;28;20460;-71
2023/07/15 02:40:11;;;;;;;4.00;3.40;;;20.40;93.20;;;;;;4994507;28;20484;-71
2023/07/15 02:42:39;;;;;;;4.67;3.60;;;20.30;92.90;;;;;;4994495;28;20523;-71
2023/07/15 02:45:11;;;;;;;6.50;3.80;;;20.30;92.90;;;;;;4994158;28;20534;-70
2023/07/15 02:47:40;;;;;;;4.80;3.07;;;20.30;93.00;;;;;;4993776;28;20831;-71
2023/07/15 02:50:09;;;;;;;4.27;3.30;;;20.20;93.10;;;;;;4994428;28;20496;-70
2023/07/15 02:52:38;;;;;;;5.03;3.60;;;20.20;93.30;;;;;;4994135;28;20447;-71
2023/07/15 02:55:07;;;;;;;5.97;3.10;;;20.20;93.40;;;;;;4993622;28;20474;-71
2023/07/15 02:57:35;;;;;;;4.60;3.53;;;20.20;93.50;;;;;;4992629;28;20514;-71
2023/07/15 03:00:08;;;;;;;4.20;3.50;;;20.10;93.50;;;;;;4993651;28;20484;-71
2023/07/15 03:02:36;;;;;;;4.33;3.53;;;20.20;93.90;;;;;;4994335;28;20500;-71
2023/07/15 03:05:06;;;;;;;4.87;3.87;;;20.10;93.70;;;;;;4993475;28;20799;-71
2023/07/15 03:07:34;;;;;;;4.47;3.80;;;20.10;94.00;;;;;;4993913;28;20447;-71
2023/07/15 03:10:01;;;;;;;4.87;3.87;;;20.10;94.10;;;;;;4994230;28;20447;-71
2023/07/15 03:12:29;;;;;;;5.43;4.67;;;20.10;94.10;;;;;;5009736;28;20471;-71
2023/07/15 03:14:58;;;;;;;6.57;5.43;;;20.10;94.00;;;;;;5013536;28;20532;-71
2023/07/15 03:17:25;;;;;;;5.43;4.60;;;20.00;94.00;;;;;;5013495;28;20446;-71
2023/07/15 03:19:56;;;;;;;6.93;4.70;;;20.00;93.70;;;;;;5013253;28;20838;-71
2023/07/15 03:22:24;;;;;;;6.83;4.60;;;20.00;93.60;;;;;;5013882;28;20802;-71
2023/07/15 03:24:53;;;;;;;9.63;4.70;;;20.00;93.50;;;;;;5013826;28;20445;-71
2023/07/15 03:27:23;;;;;;;5.90;4.47;;;19.90;93.40;;;;;;5013220;28;20940;-71
2023/07/15 03:29:51;;;;;;;5.07;4.37;;;19.90;93.40;;;;;;5013665;28;20791;-72
2023/07/15 03:32:19;;;;;;;5.57;4.10;;;19.80;93.20;;;;;;5013041;28;20439;-71
2023/07/15 03:34:46;;;;;;;5.80;5.20;;;19.80;93.00;;;;;;5013514;28;20439;-71
2023/07/15 03:37:16;;;;;;;5.90;4.30;;;19.80;93.10;;;;;;5014226;28;20499;-72
2023/07/15 03:39:45;;;;;;;4.60;3.20;;;19.70;93.50;;;;;;5016980;28;20478;-71
2023/07/15 03:42:12;;;;;;;8.60;5.80;;;19.70;93.80;;;;;;5030839;28;20441;-70
2023/07/15 03:44:40;;;;;;;6.50;3.60;;;19.70;94.10;;;;;;5036889;28;20449;-71
2023/07/15 03:47:09;;;;;;;5.13;3.83;;;19.70;94.20;;;;;;5036779;28;20499;-71
2023/07/15 03:49:36;;;;;;;5.90;4.00;;;19.70;94.20;;;;;;5037001;28;20445;-71
2023/07/15 03:52:04;;;;;;;6.20;3.60;;;19.70;94.20;;;;;;5023888;28;20439;-71
2023/07/15 03:54:36;;;;;;;9.00;4.50;;;19.60;94.30;;;;;;5016932;28;20439;-71
2023/07/15 03:57:05;;;;;;;5.40;3.80;;;19.60;94.20;;;;;;5017443;28;20425;-71
2023/07/15 03:59:32;;;;;;;4.73;3.80;;;19.60;94.10;;;;;;5016377;28;20557;-69
2023/07/15 04:02:01;;;;;;;5.20;4.00;;;19.50;94.50;;;;;;5011426;28;20794;-69
2023/07/15 04:04:28;;;;;;;5.30;4.07;;;19.50;95.00;;;;;;5016844;28;20434;-69
2023/07/15 04:06:56;;;;;;;4.30;3.90;;;19.50;95.50;;;;;;5015931;28;20454;-69
2023/07/15 04:09:36;;;;;;;5.57;4.40;;;19.50;95.60;;;;;;5015444;28;20446;-69
2023/07/15 04:12:10;;;;;;;3.40;2.87;;;19.60;95.10;;;;;;5026163;28;20473;-69
2023/07/15 04:14:40;;;;;;;4.80;3.87;;;19.60;94.80;;;;;;5034610;28;20453;-70
2023/07/15 04:17:07;;;;;;;4.60;3.57;;;19.50;94.90;;;;;;5035732;28;20429;-69
2023/07/15 04:19:53;;;;;;;3.93;3.20;;;19.60;95.10;;;;;;5015844;28;20537;-69
2023/07/15 04:22:20;;;;;;;6.20;3.77;;;19.60;95.40;;;;;;5001098;28;20567;-69
2023/07/15 04:24:48;;;;;;;5.73;3.50;;;19.60;95.40;;;;;;5006522;28;20474;-69
2023/07/15 04:27:17;;;;;;;7.13;3.23;;;19.70;95.50;;;;;;4993098;28;20771;-69
2023/07/15 04:29:46;;;;;;;4.30;3.70;;;19.60;95.40;;;;;;4996091;28;20485;-69
2023/07/15 04:32:16;;;;;;;5.10;3.73;;;19.70;95.60;;;;;;4996147;28;20442;-69
2023/07/15 04:34:49;;;;;;;3.93;3.30;;;19.70;95.60;;;;;;5003267;28;20435;-69
2023/07/15 04:37:20;;;;;;;5.27;3.47;;;19.70;95.80;;;;;;5015755;28;20426;-69
2023/07/15 04:39:54;;;;;;;4.83;3.37;;;19.70;96.00;;;;;;5015598;28;20540;-69
2023/07/15 04:42:23;;;;;;;4.67;3.50;;;19.80;96.10;;;;;;5015603;28;20918;-69
2023/07/15 04:44:53;;;;;;;4.17;3.00;;;19.80;96.30;;;;;;5012648;28;20475;-70
2023/07/15 04:47:21;;;;;;;3.53;3.20;;;19.90;96.40;;;;;;5013778;28;20435;-70
2023/07/15 04:54:00;;;;;;;5.40;3.33;;;20.00;96.50;;;;;;5014116;28;20374;-70
2023/07/15 04:56:29;;;;;;;5.13;3.10;;;20.00;96.50;;;;;;4995283;28;20435;-69
2023/07/15 05:05:44;;;;;;;11.73;3.83;;;20.30;96.70;;;;;;5008712;28;20420;-71
2023/07/15 05:08:15;;;;;;;17.00;4.97;;;20.40;96.90;;;;;;5011839;28;20433;-70
2023/07/15 05:10:42;;;;;;;10.13;4.63;;;20.50;96.90;;;;;;5015327;28;20818;-71
2023/07/15 05:13:09;;;;;;;8.17;4.20;;;20.50;96.90;;;;;;5001897;28;20459;-69
2023/07/15 05:15:38;;;;;;;9.40;5.53;;;20.60;96.90;;;;;;5011460;28;20444;-69
2023/07/15 05:18:10;;;;;;;5.67;3.83;;;20.70;96.90;;;;;;5014793;28;20439;-69
2023/07/15 05:20:38;;;;;;;8.87;4.20;;;20.80;96.80;;;;;;5014058;28;20463;-69
2023/07/15 05:23:07;;;;;;;6.37;4.77;;;20.90;96.60;;;;;;5014347;28;20461;-70
2023/07/15 05:25:34;;;;;;;5.57;3.27;;;21.00;96.60;;;;;;4998401;28;20428;-72
2023/07/15 05:28:02;;;;;;;10.03;3.10;;;21.10;96.60;;;;;;4998334;28;20450;-70
2023/07/15 05:30:37;;;;;;;8.80;3.20;;;21.20;96.70;;;;;;5014812;28;20776;-69
2023/07/15 05:33:05;;;;;;;5.10;3.87;;;21.20;96.70;;;;;;5014709;28;20453;-71
2023/07/15 05:35:34;;;;;;;6.33;3.80;;;21.20;96.70;;;;;;5007872;28;20926;-70
2023/07/15 05:38:06;;;;;;;5.37;3.33;;;21.30;96.70;;;;;;5014231;28;20934;-69
2023/07/15 05:40:33;;;;;;;4.20;3.30;;;21.40;96.70;;;;;;5014148;28;20475;-71
2023/07/15 05:43:01;;;;;;;5.30;3.47;;;21.50;96.70;;;;;;5013814;28;20499;-69
2023/07/15 05:45:38;;;;;;;7.37;4.30;;;21.60;96.50;;;;;;4996833;28;20448;-69
2023/07/15 05:48:06;;;;;;;6.20;4.17;;;21.60;96.30;;;;;;5004634;28;20432;-70
2023/07/15 05:50:36;;;;;;;3.90;3.13;;;21.70;96.10;;;;;;5013658;28;20455;-69
2023/07/15 05:53:04;;;;;;;4.70;3.53;;;21.80;96.20;;;;;;5013850;28;20428;-71
2023/07/15 05:55:34;;;;;;;5.13;3.50;;;21.80;96.30;;;;;;5013129;28;20929;-72
2023/07/15 05:58:02;;;;;;;3.60;2.83;;;22.00;96.50;;;;;;5003531;28;20434;-71
2023/07/15 06:00:30;;;;;;;4.13;3.10;;;22.10;96.40;;;;;;4998566;28;20575;-71
2023/07/15 06:03:04;;;;;;;5.73;3.20;;;22.10;96.20;;;;;;5013826;28;20486;-71
2023/07/15 06:05:31;;;;;;;5.40;3.20;;;22.20;96.20;;;;;;5013693;28;20909;-71
2023/07/15 06:07:58;;;;;;;8.20;3.17;;;22.30;96.10;;;;;;4997116;28;20977;-72
2023/07/15 06:10:25;;;;;;;4.80;2.57;;;22.40;96.00;;;;;;4994074;28;20539;-71
2023/07/15 06:12:53;;;;;;;3.10;2.40;;;22.50;96.10;;;;;;4993887;28;20508;-72
2023/07/15 06:15:20;;;;;;;5.07;3.03;;;22.50;96.30;;;;;;5014153;28;20486;-71
2023/07/15 06:17:47;;;;;;;6.03;3.10;;;22.60;96.30;;;;;;5014055;28;20539;-71
2023/07/15 06:20:19;;;;;;;4.00;2.77;;;22.70;96.10;;;;;;5013646;28;20575;-71
2023/07/15 06:22:46;;;;;;;3.90;2.80;;;22.80;95.90;;;;;;5013323;28;20436;-71
2023/07/15 06:25:13;;;;;;;4.30;3.37;;;22.90;95.80;;;;;;5003107;28;20862;-71
2023/07/15 06:27:41;;;;;;;4.23;3.00;;;23.00;95.60;;;;;;5013620;28;20530;-72
2023/07/15 06:30:10;;;;;;;6.87;4.10;;;23.10;95.20;;;;;;5006664;28;20449;-72
2023/07/15 06:32:37;;;;;;;5.27;3.17;;;23.10;94.30;;;;;;4994383;28;20532;-71
2023/07/15 06:35:04;;;;;;;3.93;2.80;;;23.20;93.40;;;;;;5007999;28;20494;-71
2023/07/15 06:37:32;;;;;;;3.40;2.60;;;23.20;93.00;;;;;;5013504;28;20480;-71
2023/07/15 06:39:59;;;;;;;3.87;2.87;;;23.30;92.50;;;;;;5013420;28;20572;-72
2023/07/15 06:42:26;;;;;;;4.93;2.80;;;23.30;92.50;;;;;;5011302;28;20472;-71
2023/07/15 06:44:53;;;;;;;4.60;3.40;;;23.40;93.10;;;;;;5013107;28;20495;-71
2023/07/15 06:47:22;;;;;;;5.97;2.87;;;23.50;93.10;;;;;;5013661;28;20527;-71
2023/07/15 06:49:48;;;;;;;5.10;2.40;;;23.60;92.80;;;;;;5005043;28;20524;-72
2023/07/15 06:52:15;;;;;;;3.77;2.87;;;23.70;92.20;;;;;;4993587;28;20533;-71
2023/07/15 06:54:42;;;;;;;4.40;2.63;;;23.80;91.60;;;;;;4993884;28;20536;-71
2023/07/15 06:57:12;;;;;;;5.33;3.67;;;23.90;91.50;;;;;;4990359;28;20603;-71
2023/07/15 06:59:39;;;;;;;4.60;2.70;;;24.00;91.20;;;;;;4993407;28;20439;-71
2023/07/15 07:02:06;;;;;;;3.87;2.70;;;24.10;91.10;;;;;;4993759;28;20446;-71
2023/07/15 07:04:35;;;;;;;4.00;2.63;;;24.20;91.00;;;;;;4993524;28;20529;-71
2023/07/15 07:07:02;;;;;;;4.20;2.67;;;24.30;91.00;;;;;;5005630;28;20449;-72
2023/07/15 07:09:29;;;;;;;6.67;2.80;;;24.40;90.70;;;;;;4993168;28;20969;-71
2023/07/15 07:11:56;;;;;;;4.20;2.70;;;24.50;90.70;;;;;;4991504;28;20879;-71
2023/07/15 07:14:22;;;;;;;4.40;2.90;;;24.60;91.30;;;;;;4999530;28;20532;-71
2023/07/15 07:16:49;;;;;;;5.20;2.70;;;24.70;91.30;;;;;;4998223;28;20557;-73
2023/07/15 07:19:16;;;;;;;3.33;2.90;;;24.90;90.90;;;;;;4998875;28;20445;-70
2023/07/15 07:21:44;;;;;;;3.83;2.57;;;25.00;88.90;;;;;;4999701;28;20553;-71
2023/07/15 07:24:11;;;;;;;5.87;3.00;;;25.10;85.50;;;;;;4998736;28;20531;-71
2023/07/15 07:26:38;;;;;;;8.83;3.80;;;25.20;84.10;;;;;;4998973;28;20524;-73
2023/07/15 07:29:05;;;;;;;10.10;3.17;;;25.30;76.20;;;;;;4999700;28;20521;-71
2023/07/15 07:31:32;;;;;;;4.07;2.50;;;25.40;71.30;;;;;;4999156;28;20975;-71
2023/07/15 07:33:59;;;;;;;4.40;2.60;;;25.50;73.10;;;;;;4999769;28;20530;-71
2023/07/15 07:36:26;;;;;;;3.53;2.00;;;25.60;75.40;;;;;;4998631;28;20453;-71
2023/07/15 07:38:54;;;;;;;4.37;2.47;;;25.70;74.70;;;;;;4999612;28;20523;-71
2023/07/15 07:41:21;;;;;;;5.97;2.50;;;25.80;74.30;;;;;;4999329;28;20570;-71
2023/07/15 07:43:48;;;;;;;4.47;3.10;;;25.90;73.50;;;;;;4993591;28;20539;-71
2023/07/15 07:46:15;;;;;;;4.20;2.40;;;26.10;72.70;;;;;;4999004;28;20474;-71
2023/07/15 07:48:53;;;;;;;4.53;2.40;;;26.20;71.70;;;;;;5000252;28;20980;-71
2023/07/15 07:51:38;;;;;;;4.80;2.60;;;26.30;70.50;;;;;;4999543;28;20487;-71
2023/07/15 07:54:13;;;;;;;2.87;2.00;;;26.40;69.30;;;;;;4999348;28;20432;-71
2023/07/15 07:56:41;;;;;;;4.03;2.40;;;26.50;69.60;;;;;;5004027;28;20917;-71
2023/07/15 07:59:08;;;;;;;4.50;2.33;;;26.60;70.50;;;;;;5017552;28;20446;-71
2023/07/15 08:01:35;;;;;;;2.90;2.00;;;26.80;70.00;;;;;;5011047;28;21004;-72
2023/07/15 08:04:02;;;;;;;3.43;2.30;;;26.90;69.10;;;;;;4998385;28;20454;-73
2023/07/15 08:06:29;;;;;;;3.60;2.50;;;27.00;67.40;;;;;;4998725;28;20527;-71
2023/07/15 08:08:56;;;;;;;4.07;2.27;;;27.10;67.10;;;;;;4999111;28;20534;-71
2023/07/15 08:11:25;;;;;;;3.70;2.70;;;27.20;66.80;;;;;;4988164;28;20828;-71
2023/07/15 08:13:53;;;;;;;3.73;2.23;;;27.40;65.30;;;;;;4978623;28;20523;-71
2023/07/15 08:16:34;;;;;;;5.93;2.47;;;27.50;63.90;;;;;;4943921;28;20444;-72
2023/07/15 08:19:03;;;;;;;4.97;2.40;;;27.60;63.20;;;;;;4975933;28;20531;-73
2023/07/15 08:21:33;;;;;;;3.57;2.30;;;27.70;63.40;;;;;;4947055;28;20523;-76
2023/07/15 08:24:00;;;;;;;4.43;2.30;;;27.90;61.40;;;;;;4957135;28;20433;-71
2023/07/15 08:26:29;;;;;;;3.83;2.57;;;28.00;61.20;;;;;;4971367;28;20516;-73
2023/07/15 08:28:58;;;;;;;3.20;2.40;;;28.20;59.50;;;;;;4971798;28;20872;-71
2023/07/15 08:31:25;;;;;;;5.50;2.27;;;28.30;58.80;;;;;;4971783;28;20464;-76
2023/07/15 08:33:52;;;;;;;5.00;2.87;;;28.40;58.20;;;;;;4971646;28;20838;-72
2023/07/15 08:36:19;;;;;;;3.10;2.30;;;28.60;57.20;;;;;;4971848;28;21040;-73
2023/07/15 08:38:46;;;;;;;3.40;2.30;;;28.70;56.50;;;;;;4973970;28;20473;-77
2023/07/15 08:41:15;;;;;;;7.20;2.10;;;28.70;56.00;;;;;;4973152;28;21162;-72
2023/07/15 08:43:45;;;;;;;3.77;2.40;;;28.90;54.40;;;;;;4972938;28;20487;-71
2023/07/15 08:46:24;;;;;;;3.20;2.23;;;29.00;53.60;;;;;;4948045;28;20450;-73
2023/07/15 08:48:51;;;;;;;3.10;2.17;;;29.10;51.80;;;;;;4968073;28;20521;-75
2023/07/15 08:51:20;;;;;;;3.63;2.13;;;29.20;51.70;;;;;;4973375;28;20441;-78
2023/07/15 08:53:48;;;;;;;5.07;2.33;;;29.30;50.50;;;;;;4973113;28;20473;-74
2023/07/15 08:56:16;;;;;;;3.63;2.37;;;29.40;51.20;;;;;;4965748;28;20469;-76
2023/07/15 08:58:44;;;;;;;3.33;1.97;;;29.50;47.10;;;;;;4974238;28;20854;-76
2023/07/15 09:01:11;;;;;;;3.37;2.00;;;29.60;43.30;;;;;;4971413;28;20568;-71
2023/07/15 09:03:38;;;;;;;11.00;3.87;;;29.80;44.90;;;;;;4970572;28;20844;-71
2023/07/15 09:06:05;;;;;;;4.10;2.47;;;29.90;45.20;;;;;;4974097;28;20524;-71
2023/07/15 09:08:33;;;;;;;3.33;2.00;;;30.00;42.70;;;;;;4975253;28;20480;-73
2023/07/15 09:11:02;;;;;;;4.93;1.90;;;30.10;41.60;;;;;;4977152;28;20472;-71
2023/07/15 09:13:32;;;;;;;7.40;2.17;;;30.20;41.20;;;;;;4993950;28;20530;-71
2023/07/15 09:16:01;;;;;;;3.60;2.20;;;30.30;37.70;;;;;;5013089;28;20967;-71
2023/07/15 09:18:28;;;;;;;3.20;1.90;;;30.30;37.10;;;;;;5013781;28;20447;-72
2023/07/15 09:21:08;;;;;;;4.20;2.17;;;30.40;40.10;;;;;;5013695;28;20510;-73
2023/07/15 09:23:37;;;;;;;2.73;2.00;;;30.50;40.90;;;;;;5014884;28;20427;-71
2023/07/15 09:26:06;;;;;;;3.97;2.30;;;30.70;38.70;;;;;;5014955;28;20514;-71
2023/07/15 09:28:33;;;;;;;4.90;2.53;;;30.80;38.10;;;;;;5014943;28;20498;-71
2023/07/15 09:31:02;;;;;;;3.47;2.37;;;30.90;38.60;;;;;;5013718;28;20455;-72
2023/07/15 09:33:31;;;;;;;7.00;2.50;;;31.00;37.90;;;;;;5012329;28;20534;-71
2023/07/15 09:35:58;;;;;;;3.63;2.30;;;31.10;38.20;;;;;;5014212;28;20517;-71
2023/07/15 09:38:30;;;;;;;4.20;2.47;;;31.20;38.40;;;;;;5004961;28;20447;-71
2023/07/15 09:40:57;;;;;;;3.43;1.97;;;31.30;38.80;;;;;;4995065;28;20464;-71
2023/07/15 09:43:25;;;;;;;4.47;2.53;;;31.50;37.80;;;;;;4994843;28;20531;-72
2023/07/15 09:45:53;;;;;;;3.57;1.80;;;31.60;37.60;;;;;;5008783;28;20518;-71
2023/07/15 09:48:22;;;;;;;4.40;1.97;;;31.60;35.70;;;;;;5002810;28;20535;-71
2023/07/15 09:50:49;;;;;;;6.13;2.20;;;31.70;35.40;;;;;;4994585;28;20476;-72
2023/07/15 09:53:16;;;;;;;2.97;2.17;;;31.80;35.70;;;;;;4994473;28;20475;-71
2023/07/15 09:55:44;;;;;;;6.00;2.23;;;31.90;35.60;;;;;;5006172;28;20482;-71
2023/07/15 09:58:16;;;;;;;2.97;1.87;;;32.00;35.10;;;;;;5006429;28;20472;-71
2023/07/15 10:00:47;;;;;;;3.80;2.27;;;32.10;35.40;;;;;;4991300;28;20523;-71
2023/07/15 10:03:22;;;;;;;4.20;1.70;;;32.10;35.20;;;;;;5006248;28;20471;-71
2023/07/15 10:05:51;;;;;;;4.67;2.57;;;32.10;34.10;;;;;;4995043;28;20447;-71
2023/07/15 10:08:18;;;;;;;3.70;2.30;;;32.20;33.80;;;;;;4991312;28;20539;-72
2023/07/15 10:10:46;;;;;;;4.10;2.43;;;32.30;34.30;;;;;;5009386;28;20539;-73
2023/07/15 10:13:13;;;;;;;2.77;2.07;;;32.30;33.70;;;;;;5014130;28;20455;-71
2023/07/15 10:15:42;;;;;;;4.93;2.33;;;32.40;34.90;;;;;;5003388;28;20524;-71
2023/07/15 10:18:13;;;;;;;2.87;2.10;;;32.50;34.00;;;;;;4994302;28;20483;-71
2023/07/15 10:20:46;;;;;;;3.37;2.17;;;32.60;32.70;;;;;;4997598;28;20491;-71
2023/07/15 10:23:24;;;;;;;3.33;1.90;;;32.70;30.80;;;;;;5013490;28;20432;-70
2023/07/15 10:25:59;;;;;;;2.87;1.97;;;32.70;31.60;;;;;;5003026;28;20432;-70
2023/07/15 10:28:29;;;;;;;4.13;2.00;;;32.70;32.70;;;;;;4994362;28;20428;-71
2023/07/15 10:31:11;;;;;;;4.50;2.30;;;32.80;33.40;;;;;;4994080;28;20482;-71
2023/07/15 10:33:53;;;;;;;5.90;1.70;;;32.90;32.70;;;;;;4994133;28;20444;-71
2023/07/15 10:36:37;;;;;;;2.80;2.03;;;32.90;32.90;;;;;;5001758;28;20436;-71
2023/07/15 10:39:16;;;;;;;3.23;1.93;;;33.00;31.10;;;;;;4987982;28;20535;-71
2023/07/15 10:41:46;;;;;;;3.87;2.60;;;33.00;31.10;;;;;;4992970;28;20511;-71
2023/07/15 10:44:23;;;;;;;7.10;2.13;;;33.10;30.80;;;;;;4993568;28;20854;-71
2023/07/15 10:46:53;;;;;;;3.93;2.10;;;33.20;31.50;;;;;;4991978;28;20459;-71
2023/07/15 10:49:21;;;;;;;3.90;2.13;;;33.20;33.30;;;;;;4993769;28;20812;-71
2023/07/15 10:51:52;;;;;;;3.07;2.00;;;33.30;33.20;;;;;;4993365;28;20436;-71
2023/07/15 10:54:23;;;;;;;2.90;1.90;;;33.40;31.60;;;;;;4995224;28;20531;-71
2023/07/15 10:56:50;;;;;;;3.90;2.20;;;33.40;30.80;;;;;;4992644;28;20914;-73
2023/07/15 10:59:17;;;;;;;3.10;2.50;;;33.50;30.80;;;;;;4994000;28;20448;-70
2023/07/15 11:01:44;;;;;;;3.00;2.23;;;33.50;32.00;;;;;;4993279;28;20562;-71
2023/07/15 11:04:12;;;;;;;3.60;2.27;;;33.50;31.10;;;;;;4993253;28;20522;-71
2023/07/15 11:06:39;;;;;;;3.50;2.07;;;33.60;31.80;;;;;;4993254;28;20865;-71
2023/07/15 11:09:16;;;;;;;3.43;2.00;;;33.70;31.00;;;;;;4994608;28;20440;-70
2023/07/15 11:11:45;;;;;;;3.50;2.07;;;33.80;30.00;;;;;;5012792;28;20506;-71
2023/07/15 11:14:22;;;;;;;3.30;2.20;;;33.80;31.00;;;;;;5006895;28;20479;-71
2023/07/15 11:16:51;;;;;;;4.33;2.17;;;33.80;30.50;;;;;;4992939;28;20451;-71
2023/07/15 11:19:18;;;;;;;3.67;2.40;;;33.80;31.20;;;;;;4993109;28;20475;-73
2023/07/15 11:21:46;;;;;;;2.80;1.90;;;33.90;30.20;;;;;;4992732;28;20986;-71
2023/07/15 11:24:13;;;;;;;5.47;2.80;;;33.90;30.00;;;;;;5000806;28;20862;-70
2023/07/15 11:26:41;;;;;;;3.30;2.20;;;34.00;30.30;;;;;;5002639;28;20532;-71
2023/07/15 11:29:17;;;;;;;3.30;2.40;;;34.00;30.80;;;;;;4993268;28;20520;-72
2023/07/15 11:31:45;;;;;;;3.60;2.37;;;34.00;31.00;;;;;;4993302;28;20891;-70
2023/07/15 11:34:12;;;;;;;3.77;2.10;;;34.10;30.50;;;;;;4990401;28;20441;-71
2023/07/15 11:36:39;;;;;;;3.20;2.10;;;34.10;30.80;;;;;;4993181;28;20475;-70
2023/07/15 11:39:07;;;;;;;2.60;1.90;;;34.10;29.90;;;;;;4993081;28;20515;-70
2023/07/15 11:41:34;;;;;;;5.13;2.60;;;34.10;30.40;;;;;;4989879;28;21074;-71
2023/07/15 11:44:01;;;;;;;2.80;1.80;;;34.20;31.60;;;;;;4993374;28;20849;-70
2023/07/15 11:46:46;;;;;;;3.30;2.37;;;34.20;30.50;;;;;;4992893;28;20990;-71
2023/07/15 11:49:19;;;;;;;2.90;2.30;;;34.20;30.00;;;;;;4992503;28;20444;-70
2023/07/15 11:51:46;;;;;;;3.60;1.93;;;34.20;30.60;;;;;;4992421;28;20527;-71
2023/07/15 11:54:15;;;;;;;3.80;2.43;;;34.20;30.40;;;;;;4993260;28;20531;-71
2023/07/15 11:56:43;;;;;;;3.33;1.90;;;34.20;29.20;;;;;;4993152;28;20510;-71
2023/07/15 11:59:12;;;;;;;3.20;2.23;;;34.20;30.40;;;;;;4994990;28;20531;-70
2023/07/15 12:01:40;;;;;;;7.30;2.23;;;34.30;31.10;;;;;;4996758;28;20471;-71
2023/07/15 12:04:14;;;;;;;4.40;2.20;;;34.30;30.80;;;;;;4998078;28;20518;-71
2023/07/15 12:06:48;;;;;;;4.87;2.17;;;34.30;29.50;;;;;;5005228;28;20494;-71
2023/07/15 12:09:15;;;;;;;3.20;2.30;;;34.30;29.80;;;;;;4998159;28;20433;-70
2023/07/15 12:11:43;;;;;;;3.70;2.30;;;34.30;30.10;;;;;;4996444;28;20476;-70
2023/07/15 12:14:10;;;;;;;3.83;2.67;;;34.30;30.60;;;;;;5005328;28;20478;-70
2023/07/15 12:16:39;;;;;;;3.03;2.10;;;34.30;32.10;;;;;;5004751;28;20527;-70
2023/07/15 12:19:09;;;;;;;3.77;2.17;;;34.40;31.80;;;;;;4996775;28;20479;-70
2023/07/15 12:21:38;;;;;;;3.00;2.03;;;34.50;31.40;;;;;;5004360;28;20521;-70
2023/07/15 12:24:05;;;;;;;4.03;2.50;;;34.60;30.80;;;;;;5008336;28;20538;-70
2023/07/15 12:26:32;;;;;;;3.03;1.87;;;34.70;30.90;;;;;;4996436;28;20532;-71
2023/07/15 12:28:59;;;;;;;3.50;2.30;;;34.70;31.30;;;;;;4996348;28;20523;-71
2023/07/15 12:31:26;;;;;;;4.60;2.70;;;34.70;30.90;;;;;;4996502;28;20523;-70
2023/07/15 12:33:53;;;;;;;4.07;2.80;;;34.70;29.80;;;;;;4996486;28;20542;-71
2023/07/15 12:36:20;;;;;;;3.73;2.63;;;34.70;30.30;;;;;;5005833;28;20443;-70
2023/07/15 12:38:48;;;;;;;3.50;2.70;;;34.70;29.80;;;;;;5015483;28;20526;-71
2023/07/15 12:41:15;;;;;;;3.13;2.37;;;34.70;30.20;;;;;;5015753;28;20521;-70
2023/07/15 12:43:42;;;;;;;3.10;1.80;;;34.70;30.00;;;;;;5015374;28;20574;-70
2023/07/15 12:46:10;;;;;;;3.60;2.53;;;34.60;31.70;;;;;;5015435;28;20535;-71
2023/07/15 12:48:38;;;;;;;3.70;2.43;;;34.60;31.70;;;;;;5015505;28;20439;-71
2023/07/15 12:51:05;;;;;;;3.63;2.80;;;34.70;30.80;;;;;;5015780;28;20518;-70
2023/07/15 12:53:34;;;;;;;4.27;1.90;;;34.70;30.50;;;;;;5015534;28;20474;-73
2023/07/15 12:56:02;;;;;;;6.40;2.17;;;34.70;31.10;;;;;;5008392;28;20860;-72
2023/07/15 12:58:29;;;;;;;5.63;2.27;;;34.70;31.50;;;;;;4992483;28;20531;-70
2023/07/15 13:00:57;;;;;;;3.37;2.50;;;34.70;31.20;;;;;;4995333;28;20528;-70
2023/07/15 13:03:24;;;;;;;3.40;2.40;;;34.80;31.60;;;;;;4994562;28;20483;-70
2023/07/15 13:05:51;;;;;;;4.53;2.47;;;34.90;32.60;;;;;;4994524;28;20539;-71